Time;durP1;ratioP1;P1;durP2;ratioP2;P2;SDS_P1;SDS_P2;PMS_P1;PMS_P2;Temp;Humidity;BMP_temperature;BMP_pressure;BME280_temperature;BME280_humidity;BME280_pressure;Samples;Min_cycle;Max_cycle;Signal;HPM_P1;HPM_P2
2021/09/30 04:00:49;;;;;;;3.03;1.20;;;9.70;99.90;;;;;;5827243;23;20497;-67
2021/09/30 04:03:15;;;;;;;3.17;1.80;;;9.70;99.90;;;;;;4995353;28;20465;-67
2021/09/30 04:05:42;;;;;;;2.30;1.60;;;9.70;99.90;;;;;;4995331;28;20454;-68
2021/09/30 04:08:09;;;;;;;4.73;1.77;;;9.60;99.90;;;;;;4995325;28;20454;-66
2021/09/30 04:10:36;;;;;;;2.40;1.80;;;9.60;99.90;;;;;;4995319;28;20480;-67
2021/09/30 04:13:03;;;;;;;4.77;2.00;;;9.50;99.90;;;;;;4995072;28;20462;-67
2021/09/30 04:15:29;;;;;;;1.90;1.40;;;9.50;99.90;;;;;;4995247;28;20464;-67
2021/09/30 04:17:57;;;;;;;2.10;1.53;;;9.50;99.90;;;;;;4994959;28;20453;-67
2021/09/30 04:20:24;;;;;;;3.80;1.53;;;9.40;99.90;;;;;;4994643;28;20991;-67
2021/09/30 04:22:51;;;;;;;2.10;1.90;;;9.40;99.90;;;;;;4994874;28;20461;-67
2021/09/30 04:25:17;;;;;;;5.87;1.80;;;9.40;99.90;;;;;;4996023;28;20461;-67
2021/09/30 04:27:44;;;;;;;1.97;1.70;;;9.40;99.90;;;;;;4996686;28;20458;-66
2021/09/30 04:30:11;;;;;;;1.80;1.60;;;9.50;99.90;;;;;;4994444;28;20458;-67
2021/09/30 04:32:38;;;;;;;2.00;1.73;;;9.50;99.90;;;;;;4995183;28;20538;-66
2021/09/30 04:35:07;;;;;;;4.00;1.60;;;9.50;99.90;;;;;;4994927;28;20480;-67
2021/09/30 04:37:34;;;;;;;1.97;1.87;;;9.40;99.90;;;;;;4994883;28;20454;-66
2021/09/30 04:40:01;;;;;;;2.13;1.70;;;9.40;99.90;;;;;;4994932;28;20481;-66
2021/09/30 04:42:27;;;;;;;3.13;2.07;;;9.40;99.90;;;;;;4994761;28;20478;-67
2021/09/30 04:44:54;;;;;;;1.40;1.40;;;9.40;99.90;;;;;;4994729;28;20530;-66
2021/09/30 04:47:21;;;;;;;3.43;1.40;;;9.40;99.90;;;;;;4994862;28;20465;-67
2021/09/30 04:49:48;;;;;;;4.03;2.23;;;9.40;99.90;;;;;;4994787;28;20798;-67
2021/09/30 04:52:16;;;;;;;2.70;2.20;;;9.40;99.90;;;;;;4995307;28;20478;-67
2021/09/30 04:54:43;;;;;;;3.70;2.80;;;9.30;99.90;;;;;;4994800;28;20460;-67
2021/09/30 04:57:10;;;;;;;7.43;2.57;;;9.30;99.90;;;;;;4994939;28;20462;-66
2021/09/30 04:59:36;;;;;;;6.63;2.67;;;9.30;99.90;;;;;;4994610;28;20474;-66
2021/09/30 05:02:03;;;;;;;2.87;2.67;;;9.30;99.90;;;;;;4993853;28;20485;-67
2021/09/30 05:04:30;;;;;;;4.27;2.37;;;9.20;99.90;;;;;;4994454;28;20464;-66
2021/09/30 05:06:57;;;;;;;5.32;2.30;;;9.30;99.90;;;;;;4993656;28;20797;-68
2021/09/30 05:09:25;;;;;;;5.70;3.00;;;9.30;99.90;;;;;;4994742;28;20195;-69
2021/09/30 05:11:55;;;;;;;2.07;1.97;;;9.30;99.90;;;;;;4994688;28;20914;-68
2021/09/30 05:14:22;;;;;;;2.27;2.17;;;9.30;99.90;;;;;;4994381;28;20517;-67
2021/09/30 05:16:49;;;;;;;3.30;2.33;;;9.30;99.90;;;;;;4994450;28;20454;-67
2021/09/30 05:19:16;;;;;;;4.20;2.73;;;9.40;99.90;;;;;;4994542;28;20474;-67
2021/09/30 05:21:43;;;;;;;3.40;2.50;;;9.40;99.90;;;;;;4993748;28;20987;-67
2021/09/30 05:24:10;;;;;;;2.57;2.47;;;9.40;99.90;;;;;;4994056;28;20461;-67
2021/09/30 05:26:39;;;;;;;3.57;2.43;;;9.40;99.90;;;;;;4997410;28;20937;-67
2021/09/30 05:29:06;;;;;;;4.53;3.40;;;9.40;99.90;;;;;;5000472;28;20867;-67
2021/09/30 05:31:34;;;;;;;2.40;2.20;;;9.40;99.90;;;;;;4997735;28;20548;-68
2021/09/30 05:34:00;;;;;;;5.83;2.63;;;9.40;99.90;;;;;;4997390;28;20457;-68
2021/09/30 05:36:27;;;;;;;3.37;2.70;;;9.40;99.90;;;;;;4997278;28;20454;-67
2021/09/30 05:38:54;;;;;;;3.40;3.10;;;9.40;99.90;;;;;;4997241;28;20457;-68
2021/09/30 05:41:22;;;;;;;4.23;2.50;;;9.40;99.90;;;;;;4996603;28;20984;-68
2021/09/30 05:43:52;;;;;;;4.17;2.23;;;9.40;99.90;;;;;;4997314;28;20461;-68
2021/09/30 05:46:30;;;;;;;3.03;2.70;;;9.40;99.90;;;;;;4997332;28;20500;-68
2021/09/30 05:48:56;;;;;;;3.07;2.57;;;9.40;99.90;;;;;;4997870;28;20488;-68
2021/09/30 05:51:23;;;;;;;4.33;2.80;;;9.50;99.90;;;;;;4997301;28;20473;-68
2021/09/30 05:53:50;;;;;;;3.73;2.80;;;9.50;99.90;;;;;;4997665;28;20461;-68
2021/09/30 05:56:16;;;;;;;3.70;2.30;;;9.50;99.90;;;;;;4996951;28;20462;-68
2021/09/30 05:58:43;;;;;;;6.10;3.17;;;9.60;99.90;;;;;;4996863;28;20964;-68
2021/09/30 06:01:14;;;;;;;3.43;2.73;;;9.60;99.90;;;;;;4997215;28;20901;-68
2021/09/30 06:10:07;;;;;;;5.13;2.23;;;9.90;99.90;;;;;;4937346;29;20933;-69
2021/09/30 06:12:30;;;;;;;4.23;2.67;;;10.00;99.90;;;;;;4996647;28;20472;-69
2021/09/30 06:14:58;;;;;;;7.80;3.07;;;10.30;99.90;;;;;;4998936;28;20454;-69
2021/09/30 06:17:27;;;;;;;4.83;3.17;;;10.40;99.90;;;;;;4999559;28;20529;-69
2021/09/30 06:19:54;;;;;;;4.97;2.83;;;10.50;99.90;;;;;;4996968;28;20461;-70
2021/09/30 06:22:20;;;;;;;4.30;3.23;;;10.70;99.90;;;;;;4996956;28;20862;-69
2021/09/30 06:24:47;;;;;;;4.77;2.83;;;10.90;99.90;;;;;;4996737;28;20457;-69
2021/09/30 06:27:14;;;;;;;5.30;2.73;;;11.30;99.90;;;;;;4996640;28;20961;-69
2021/09/30 06:29:41;;;;;;;3.90;2.47;;;12.00;99.90;;;;;;4997234;28;20438;-69
2021/09/30 06:32:08;;;;;;;4.87;2.10;;;12.80;99.90;;;;;;4996649;28;20526;-67
2021/09/30 06:34:36;;;;;;;7.30;3.17;;;13.70;99.90;;;;;;4996307;28;20450;-68
2021/09/30 06:37:03;;;;;;;2.63;2.43;;;14.50;99.90;;;;;;4997017;28;20511;-69
2021/09/30 06:39:30;;;;;;;2.23;1.90;;;15.40;99.90;;;;;;4996756;28;20454;-69
2021/09/30 06:41:56;;;;;;;5.40;2.43;;;15.60;99.90;;;;;;4996616;28;20482;-70
2021/09/30 06:44:23;;;;;;;2.03;1.83;;;15.90;99.90;;;;;;4996578;28;20458;-69
2021/09/30 06:46:50;;;;;;;3.03;2.13;;;17.00;99.90;;;;;;4996482;28;20816;-69
2021/09/30 06:49:17;;;;;;;4.30;2.23;;;17.80;99.90;;;;;;4996826;28;20461;-69
2021/09/30 06:51:45;;;;;;;6.43;2.77;;;17.50;99.90;;;;;;4996106;28;20478;-69
2021/09/30 06:54:12;;;;;;;2.83;2.53;;;17.80;99.90;;;;;;4996194;28;20465;-70
2021/09/30 06:56:38;;;;;;;4.87;2.43;;;18.50;99.90;;;;;;4996849;28;20470;-69
2021/09/30 06:59:07;;;;;;;5.73;2.37;;;18.90;99.90;;;;;;5002728;28;20454;-69
2021/09/30 07:01:35;;;;;;;2.87;2.30;;;19.20;99.90;;;;;;4998045;28;20510;-69
2021/09/30 07:04:05;;;;;;;6.83;2.30;;;18.40;99.90;;;;;;4995999;28;20824;-69
2021/09/30 07:06:32;;;;;;;6.77;2.37;;;18.50;99.90;;;;;;4996723;28;20457;-69
2021/09/30 07:09:00;;;;;;;5.93;2.80;;;17.70;99.90;;;;;;4996154;28;20465;-69
2021/09/30 07:11:26;;;;;;;3.73;2.23;;;18.80;99.90;;;;;;4995794;28;20469;-69
2021/09/30 07:13:53;;;;;;;3.20;2.50;;;19.10;99.90;;;;;;4996253;28;20473;-69
2021/09/30 07:16:20;;;;;;;4.17;1.97;;;19.20;99.90;;;;;;4995710;28;20469;-69
2021/09/30 07:18:47;;;;;;;3.90;2.00;;;19.20;99.90;;;;;;4996131;28;20457;-69
2021/09/30 07:21:13;;;;;;;2.60;2.00;;;20.40;99.10;;;;;;4996113;28;20557;-69
2021/09/30 07:23:40;;;;;;;3.90;2.00;;;20.70;98.10;;;;;;4995988;28;20824;-69
2021/09/30 07:26:09;;;;;;;6.63;1.83;;;20.90;96.30;;;;;;4996242;28;20464;-69
2021/09/30 07:28:36;;;;;;;6.43;2.17;;;20.50;95.70;;;;;;4995591;28;21027;-69
2021/09/30 07:31:03;;;;;;;2.00;1.60;;;19.50;98.30;;;;;;4995470;28;20469;-70
2021/09/30 07:33:33;;;;;;;3.67;1.90;;;20.00;97.80;;;;;;4995431;28;20953;-69
2021/09/30 07:36:00;;;;;;;3.73;1.90;;;21.30;95.20;;;;;;4995854;28;20454;-69
2021/09/30 07:38:28;;;;;;;5.07;2.00;;;22.20;93.70;;;;;;4995439;28;20454;-69
2021/09/30 07:40:54;;;;;;;5.83;1.77;;;23.10;92.20;;;;;;4994937;28;20482;-68
2021/09/30 07:43:23;;;;;;;6.30;1.93;;;23.20;87.90;;;;;;4995215;28;20450;-68
2021/09/30 07:45:50;;;;;;;4.50;1.73;;;22.90;87.90;;;;;;4994682;28;20915;-68
2021/09/30 07:48:17;;;;;;;2.43;1.50;;;23.30;90.30;;;;;;4994371;28;20457;-68
2021/09/30 07:50:45;;;;;;;2.90;1.43;;;23.00;85.60;;;;;;4995304;28;20477;-68
2021/09/30 07:53:14;;;;;;;4.40;1.50;;;23.40;84.70;;;;;;4994607;28;20962;-68
2021/09/30 07:55:41;;;;;;;2.70;1.70;;;24.40;81.70;;;;;;4995042;28;20450;-68
2021/09/30 07:58:09;;;;;;;3.00;1.27;;;25.00;79.00;;;;;;4994858;28;20460;-68
2021/09/30 08:00:37;;;;;;;3.70;1.50;;;25.60;77.70;;;;;;4994726;28;20544;-68
2021/09/30 08:03:05;;;;;;;2.27;1.23;;;25.60;74.60;;;;;;4994846;28;20464;-69
2021/09/30 08:05:34;;;;;;;2.77;1.43;;;26.10;75.10;;;;;;4995681;28;20458;-68
2021/09/30 08:08:02;;;;;;;5.13;1.80;;;26.50;72.30;;;;;;4996357;28;20512;-68
2021/09/30 08:10:28;;;;;;;3.77;1.90;;;26.70;68.90;;;;;;4995003;28;20482;-69
2021/09/30 08:12:55;;;;;;;3.50;1.50;;;25.80;68.80;;;;;;4994388;28;20458;-69
2021/09/30 08:15:22;;;;;;;3.60;1.60;;;25.70;68.30;;;;;;4994717;28;20453;-68
2021/09/30 08:17:50;;;;;;;2.93;1.50;;;26.00;71.20;;;;;;4995018;28;20493;-69
2021/09/30 08:20:17;;;;;;;3.40;1.50;;;26.30;69.80;;;;;;4994737;28;20484;-69
2021/09/30 08:22:44;;;;;;;4.97;1.53;;;26.10;68.40;;;;;;4994472;28;20453;-69
2021/09/30 08:25:11;;;;;;;5.10;1.60;;;26.60;70.00;;;;;;4995236;28;20485;-69
2021/09/30 08:27:38;;;;;;;2.07;1.10;;;26.40;67.60;;;;;;4997889;28;20444;-67
2021/09/30 08:30:06;;;;;;;6.20;1.40;;;26.50;64.70;;;;;;4996965;28;20500;-67
2021/09/30 08:32:33;;;;;;;2.37;1.80;;;26.30;63.90;;;;;;4994892;28;20473;-67
2021/09/30 08:35:01;;;;;;;3.07;1.40;;;26.30;66.40;;;;;;4994820;28;20545;-66
2021/09/30 08:37:30;;;;;;;4.23;1.30;;;25.70;65.10;;;;;;4994322;28;20953;-66
2021/09/30 08:39:56;;;;;;;1.83;1.30;;;25.70;65.60;;;;;;4994298;28;20459;-67
2021/09/30 08:42:23;;;;;;;7.30;1.53;;;26.40;64.00;;;;;;4994298;28;20473;-66
2021/09/30 08:44:52;;;;;;;1.57;1.03;;;25.90;63.50;;;;;;4994828;28;20465;-66
2021/09/30 08:47:21;;;;;;;1.77;1.00;;;26.30;62.60;;;;;;4995004;28;20490;-69
2021/09/30 08:49:47;;;;;;;3.37;1.30;;;26.60;62.90;;;;;;4994634;28;20462;-71
2021/09/30 08:52:16;;;;;;;3.90;1.30;;;27.10;59.60;;;;;;4994804;28;20473;-70
2021/09/30 08:54:42;;;;;;;7.93;1.60;;;27.60;58.60;;;;;;4994588;28;20577;-70
2021/09/30 08:57:09;;;;;;;2.93;1.10;;;27.20;57.40;;;;;;4994832;28;20473;-70
2021/09/30 08:59:37;;;;;;;2.90;1.33;;;25.90;57.60;;;;;;4994992;28;20465;-69
2021/09/30 09:02:06;;;;;;;2.67;1.30;;;24.90;58.80;;;;;;4997978;28;20536;-69
2021/09/30 09:04:33;;;;;;;5.20;1.30;;;24.20;59.10;;;;;;4998984;28;20945;-69
2021/09/30 09:07:06;;;;;;;2.40;1.43;;;23.40;60.80;;;;;;4998687;28;20484;-69
2021/09/30 09:09:35;;;;;;;2.90;1.30;;;22.90;64.50;;;;;;4998919;28;20469;-69
2021/09/30 09:12:05;;;;;;;3.53;1.20;;;22.50;66.50;;;;;;4998402;28;20549;-69
2021/09/30 09:14:34;;;;;;;2.80;1.13;;;21.80;67.50;;;;;;4998986;28;20444;-68
2021/09/30 09:17:03;;;;;;;2.60;1.33;;;21.30;69.60;;;;;;4998711;28;20464;-69
2021/09/30 09:19:37;;;;;;;6.03;1.20;;;20.60;71.30;;;;;;4998334;28;20458;-69
2021/09/30 09:22:11;;;;;;;3.60;1.00;;;20.30;69.10;;;;;;4998686;28;20482;-70
2021/09/30 09:25:06;;;;;;;2.80;1.33;;;19.90;69.30;;;;;;4998440;28;20518;-69
2021/09/30 09:27:51;;;;;;;2.77;1.40;;;19.50;72.50;;;;;;4998643;28;20446;-69
2021/09/30 09:30:25;;;;;;;3.77;1.43;;;19.20;74.40;;;;;;4998454;28;20480;-69
2021/09/30 09:33:01;;;;;;;2.10;1.13;;;18.70;73.70;;;;;;4998337;28;20790;-69
2021/09/30 09:35:28;;;;;;;3.37;1.43;;;18.50;75.80;;;;;;4998234;28;20448;-69
2021/09/30 09:38:01;;;;;;;3.47;1.40;;;18.30;76.80;;;;;;4997947;28;20454;-69
2021/09/30 09:40:29;;;;;;;8.20;1.77;;;18.30;79.10;;;;;;4997842;28;20441;-67
2021/09/30 09:42:56;;;;;;;1.60;1.20;;;18.70;78.10;;;;;;4997555;28;20460;-70
2021/09/30 09:45:22;;;;;;;3.33;0.93;;;18.70;75.80;;;;;;4997584;28;20458;-70
2021/09/30 09:47:49;;;;;;;13.03;1.63;;;19.30;74.30;;;;;;4998411;28;20465;-68
2021/09/30 09:50:18;;;;;;;3.53;1.17;;;20.00;74.80;;;;;;4997672;28;20461;-68
2021/09/30 09:52:50;;;;;;;2.37;0.90;;;20.60;69.60;;;;;;4998109;28;20472;-69
2021/09/30 09:55:20;;;;;;;2.60;1.30;;;20.80;71.60;;;;;;4997695;28;20438;-68
2021/09/30 09:58:03;;;;;;;1.40;1.30;;;21.70;70.40;;;;;;5001425;28;20480;-68
2021/09/30 10:00:32;;;;;;;3.33;1.57;;;22.40;63.70;;;;;;4999502;28;20453;-69
2021/09/30 10:03:12;;;;;;;3.43;1.37;;;23.50;63.00;;;;;;4997696;28;20440;-68
2021/09/30 10:05:39;;;;;;;3.07;1.00;;;23.30;65.70;;;;;;4997472;28;20438;-69
2021/09/30 10:08:07;;;;;;;1.50;1.07;;;24.40;62.20;;;;;;4997214;28;20454;-69
2021/09/30 10:10:34;;;;;;;1.23;1.10;;;24.70;57.20;;;;;;4997357;28;20476;-69
2021/09/30 10:13:03;;;;;;;2.43;1.00;;;24.70;55.50;;;;;;4997138;28;20457;-69
2021/09/30 10:15:30;;;;;;;1.80;1.17;;;24.70;54.60;;;;;;4997243;28;20449;-69
2021/09/30 10:17:57;;;;;;;1.83;1.00;;;24.80;54.80;;;;;;4996974;28;20441;-69
2021/09/30 10:20:25;;;;;;;3.40;1.10;;;24.30;55.90;;;;;;4996974;28;20454;-68
2021/09/30 10:22:53;;;;;;;2.43;0.93;;;24.90;56.60;;;;;;4996698;28;20481;-69
2021/09/30 10:25:21;;;;;;;3.63;1.30;;;25.60;54.30;;;;;;4997242;28;20454;-69
2021/09/30 10:27:56;;;;;;;1.90;0.70;;;25.20;55.40;;;;;;4996718;28;20463;-67
2021/09/30 10:30:36;;;;;;;3.13;1.00;;;24.50;54.30;;;;;;4996729;28;20441;-67
2021/09/30 10:33:04;;;;;;;1.90;1.00;;;24.00;58.50;;;;;;4997868;28;20445;-70
2021/09/30 10:35:32;;;;;;;1.80;0.97;;;23.60;56.10;;;;;;4996441;28;20823;-70
2021/09/30 10:38:20;;;;;;;2.30;1.10;;;23.60;55.60;;;;;;4996583;28;20442;-69
2021/09/30 10:41:12;;;;;;;1.70;1.20;;;23.60;55.30;;;;;;4995955;28;20488;-71
2021/09/30 10:43:42;;;;;;;1.20;0.77;;;23.90;52.90;;;;;;4996107;28;20460;-70
2021/09/30 10:46:50;;;;;;;1.70;0.80;;;24.50;54.20;;;;;;4996312;28;20445;-70
2021/09/30 10:49:44;;;;;;;2.57;1.03;;;25.40;55.40;;;;;;4995837;28;20939;-70
2021/09/30 10:52:26;;;;;;;4.27;1.27;;;25.00;52.30;;;;;;4995705;28;20466;-69
2021/09/30 10:55:23;;;;;;;2.23;1.00;;;24.20;55.00;;;;;;4995452;28;20453;-70
2021/09/30 10:57:51;;;;;;;2.50;1.00;;;24.20;56.50;;;;;;4995554;28;20910;-70
2021/09/30 11:00:46;;;;;;;2.00;1.13;;;23.10;57.60;;;;;;4995394;28;20457;-69
2021/09/30 11:03:21;;;;;;;3.10;1.10;;;22.60;56.70;;;;;;4995663;28;20477;-70
2021/09/30 11:06:15;;;;;;;1.83;1.00;;;22.20;57.60;;;;;;4995793;28;20440;-70
2021/09/30 11:08:43;;;;;;;2.40;0.93;;;22.20;59.40;;;;;;4995632;28;20503;-69
2021/09/30 11:11:12;;;;;;;3.07;1.00;;;22.10;62.10;;;;;;4995243;28;20473;-69
2021/09/30 11:13:40;;;;;;;1.00;1.00;;;22.40;58.00;;;;;;4995196;28;21056;-69
2021/09/30 11:16:09;;;;;;;1.73;1.07;;;21.90;59.40;;;;;;4995913;28;20454;-69
2021/09/30 11:18:50;;;;;;;2.03;1.20;;;22.00;61.10;;;;;;4995453;28;20457;-69
2021/09/30 11:21:42;;;;;;;1.63;1.20;;;22.00;59.10;;;;;;4995231;28;20988;-71
2021/09/30 11:24:11;;;;;;;2.57;1.07;;;21.80;59.20;;;;;;4994763;28;20461;-69
2021/09/30 11:27:06;;;;;;;2.07;1.03;;;21.70;58.90;;;;;;4995317;28;20456;-70
2021/09/30 11:29:33;;;;;;;2.40;1.00;;;21.30;59.30;;;;;;4996015;28;20458;-69
2021/09/30 11:32:26;;;;;;;2.33;1.10;;;21.10;61.60;;;;;;4995627;28;20815;-70
2021/09/30 11:35:03;;;;;;;2.87;1.10;;;21.40;62.50;;;;;;4995615;28;20445;-69
2021/09/30 11:37:40;;;;;;;0.80;0.80;;;21.70;58.30;;;;;;4995365;28;20906;-69
2021/09/30 11:40:12;;;;;;;1.77;1.10;;;21.50;57.60;;;;;;4995947;28;20519;-69
2021/09/30 11:42:41;;;;;;;3.53;1.03;;;21.30;57.50;;;;;;4995281;28;20458;-70
2021/09/30 11:45:11;;;;;;;1.13;0.80;;;21.20;58.70;;;;;;4994898;28;20454;-70
2021/09/30 11:47:39;;;;;;;1.63;0.60;;;21.30;61.50;;;;;;4995309;28;20812;-70
2021/09/30 11:50:14;;;;;;;3.60;0.87;;;21.50;61.90;;;;;;4995251;28;20454;-70
2021/09/30 11:52:42;;;;;;;1.33;0.87;;;21.40;62.30;;;;;;4995288;28;20456;-70
2021/09/30 11:55:11;;;;;;;1.43;0.70;;;21.20;59.50;;;;;;4995493;28;20798;-70
2021/09/30 11:57:38;;;;;;;1.50;1.10;;;21.30;60.70;;;;;;4994991;28;20460;-70
2021/09/30 12:00:09;;;;;;;2.20;1.30;;;21.40;63.50;;;;;;4994512;28;20450;-70
2021/09/30 12:02:36;;;;;;;1.80;0.90;;;21.10;60.00;;;;;;4994293;28;20492;-69
2021/09/30 12:05:03;;;;;;;1.20;0.90;;;20.80;64.10;;;;;;4994850;28;20460;-70
2021/09/30 12:07:31;;;;;;;2.00;1.20;;;20.50;60.50;;;;;;4994906;28;20449;-71
2021/09/30 12:09:59;;;;;;;1.47;0.83;;;20.50;61.00;;;;;;4995002;28;20445;-70
2021/09/30 12:12:28;;;;;;;1.63;0.90;;;20.70;63.70;;;;;;4994330;28;20837;-70
2021/09/30 12:14:57;;;;;;;0.70;0.63;;;20.90;62.20;;;;;;4995020;28;20464;-70
2021/09/30 12:17:29;;;;;;;3.13;1.20;;;21.00;60.50;;;;;;4995204;28;20449;-69
2021/09/30 12:19:55;;;;;;;4.33;1.20;;;21.30;60.80;;;;;;4995425;28;20443;-71
2021/09/30 12:22:25;;;;;;;2.80;0.90;;;21.70;61.20;;;;;;4994965;28;20485;-71
2021/09/30 12:24:57;;;;;;;4.73;1.00;;;21.50;57.40;;;;;;5009388;28;20449;-71
2021/09/30 12:27:29;;;;;;;2.77;0.97;;;21.20;56.60;;;;;;5009308;28;20453;-70
2021/09/30 12:30:02;;;;;;;2.10;0.90;;;21.30;58.00;;;;;;5006602;28;20438;-70
2021/09/30 12:32:34;;;;;;;1.90;1.00;;;20.90;56.20;;;;;;5001435;28;20473;-71
2021/09/30 12:35:04;;;;;;;3.70;1.13;;;20.70;55.80;;;;;;5000218;28;20448;-70
2021/09/30 12:37:33;;;;;;;1.47;0.97;;;20.40;58.10;;;;;;4999206;28;20480;-70
2021/09/30 12:40:03;;;;;;;1.00;0.73;;;20.70;60.90;;;;;;5000572;28;20457;-70
2021/09/30 12:42:31;;;;;;;2.00;0.80;;;20.90;58.20;;;;;;4999450;28;20508;-70
2021/09/30 12:44:58;;;;;;;1.37;0.73;;;21.00;59.40;;;;;;4999905;28;20442;-70
2021/09/30 12:47:30;;;;;;;3.27;0.70;;;20.90;56.00;;;;;;5002796;28;20457;-68
2021/09/30 12:50:01;;;;;;;1.30;0.97;;;21.10;57.50;;;;;;5001032;28;20453;-69
2021/09/30 12:52:28;;;;;;;1.13;0.70;;;21.10;56.20;;;;;;4998900;28;20823;-68
2021/09/30 12:54:55;;;;;;;0.70;0.70;;;21.20;57.20;;;;;;4998922;28;20476;-69
2021/09/30 12:57:32;;;;;;;2.50;0.87;;;21.00;55.80;;;;;;4998068;28;21020;-69
2021/09/30 13:00:09;;;;;;;1.07;0.77;;;21.20;56.70;;;;;;5001648;28;20551;-68
2021/09/30 13:02:36;;;;;;;1.03;0.87;;;20.80;53.70;;;;;;4999071;28;20485;-68
2021/09/30 13:05:03;;;;;;;4.53;1.00;;;20.60;52.90;;;;;;4997605;28;20453;-68
2021/09/30 13:07:46;;;;;;;1.80;0.73;;;20.50;54.30;;;;;;4998012;28;20457;-69
2021/09/30 13:10:14;;;;;;;1.97;0.80;;;20.80;56.00;;;;;;4998057;28;20478;-69
2021/09/30 13:13:01;;;;;;;1.30;0.77;;;21.00;53.20;;;;;;4997864;28;20453;-69
2021/09/30 13:15:41;;;;;;;0.70;0.70;;;20.70;52.80;;;;;;4997419;28;20805;-69
2021/09/30 13:18:10;;;;;;;0.60;0.60;;;21.10;55.00;;;;;;4998271;28;20437;-68
2021/09/30 13:20:38;;;;;;;1.90;0.80;;;21.00;52.40;;;;;;4997317;28;20476;-69
2021/09/30 13:23:05;;;;;;;1.43;0.60;;;21.10;53.30;;;;;;4997423;28;20531;-68
2021/09/30 13:25:32;;;;;;;1.07;0.87;;;21.20;53.40;;;;;;4997685;28;20462;-69
2021/09/30 13:28:00;;;;;;;1.00;0.80;;;21.00;53.40;;;;;;4997776;28;20460;-69
2021/09/30 13:30:29;;;;;;;1.43;1.13;;;21.30;53.70;;;;;;4997488;28;20799;-69
2021/09/30 13:32:58;;;;;;;1.37;0.60;;;21.30;53.30;;;;;;4997692;28;20519;-69
2021/09/30 13:35:26;;;;;;;2.97;0.90;;;21.40;54.70;;;;;;4997735;28;20458;-69
2021/09/30 13:37:53;;;;;;;1.23;0.70;;;21.40;53.50;;;;;;4997339;28;20460;-68
2021/09/30 13:40:21;;;;;;;2.47;0.90;;;21.00;53.50;;;;;;4997503;28;20461;-69
2021/09/30 13:42:48;;;;;;;1.97;0.70;;;21.20;55.50;;;;;;4997139;28;20473;-69
2021/09/30 13:45:18;;;;;;;2.30;0.97;;;21.00;54.60;;;;;;4997230;28;20894;-69
2021/09/30 13:47:45;;;;;;;0.87;0.87;;;21.00;54.30;;;;;;4996668;28;20454;-69
2021/09/30 13:50:14;;;;;;;1.33;0.90;;;20.80;52.50;;;;;;4997171;28;20951;-69
2021/09/30 13:52:41;;;;;;;1.13;1.03;;;20.90;57.00;;;;;;4997382;28;20453;-69
2021/09/30 13:55:09;;;;;;;1.60;0.77;;;20.80;56.80;;;;;;4997414;28;20871;-69
2021/09/30 13:57:36;;;;;;;1.50;0.70;;;20.60;54.50;;;;;;4997722;28;20493;-69
2021/09/30 14:00:05;;;;;;;0.60;0.60;;;20.40;57.40;;;;;;4997097;28;20468;-69
2021/09/30 14:02:34;;;;;;;3.77;1.27;;;20.30;56.20;;;;;;4996724;28;20507;-69
2021/09/30 14:05:01;;;;;;;0.97;0.63;;;20.20;56.50;;;;;;4997016;28;20492;-69
2021/09/30 14:07:28;;;;;;;1.00;0.80;;;20.40;57.00;;;;;;4996954;28;20460;-69
2021/09/30 14:09:55;;;;;;;0.80;0.57;;;20.40;54.30;;;;;;4997064;28;20462;-68
2021/09/30 14:12:22;;;;;;;3.17;1.00;;;20.40;54.90;;;;;;4996670;28;20480;-69
2021/09/30 14:14:49;;;;;;;1.53;1.00;;;20.40;54.30;;;;;;4996765;28;20465;-69
2021/09/30 14:17:16;;;;;;;1.27;0.73;;;20.40;54.50;;;;;;4996846;28;20469;-69
2021/09/30 14:19:44;;;;;;;1.50;1.00;;;20.40;55.70;;;;;;4996778;28;20505;-69
2021/09/30 14:22:10;;;;;;;3.50;0.70;;;20.40;55.50;;;;;;4996359;28;20484;-69
2021/09/30 14:24:37;;;;;;;2.00;0.80;;;20.40;55.40;;;;;;4996082;28;20934;-68
2021/09/30 14:27:06;;;;;;;2.83;0.97;;;20.30;55.50;;;;;;4996721;28;20477;-69
2021/09/30 14:29:33;;;;;;;1.67;0.70;;;20.20;57.90;;;;;;4997890;28;20512;-69
2021/09/30 14:32:00;;;;;;;1.37;0.93;;;20.30;55.70;;;;;;4998430;28;20485;-69
2021/09/30 14:34:26;;;;;;;1.07;0.80;;;20.20;54.90;;;;;;4996754;28;20465;-68
2021/09/30 14:36:55;;;;;;;4.13;0.83;;;20.20;56.60;;;;;;4996865;28;20828;-68
2021/09/30 14:39:21;;;;;;;1.13;0.97;;;20.10;58.00;;;;;;4996293;28;20454;-68
2021/09/30 14:41:48;;;;;;;2.30;1.27;;;20.10;57.90;;;;;;4996681;28;20484;-69
2021/09/30 14:44:15;;;;;;;2.93;1.10;;;20.20;57.60;;;;;;4996521;28;20486;-69
2021/09/30 14:46:42;;;;;;;1.67;0.60;;;20.10;56.70;;;;;;4996594;28;20454;-68
2021/09/30 14:49:08;;;;;;;0.83;0.83;;;20.00;57.30;;;;;;4996685;28;20461;-69
2021/09/30 14:51:35;;;;;;;1.77;0.73;;;19.90;59.20;;;;;;4996307;28;20981;-69
2021/09/30 14:54:03;;;;;;;1.97;0.87;;;19.90;61.50;;;;;;4996444;28;20464;-68
2021/09/30 14:56:30;;;;;;;6.27;0.90;;;19.50;59.50;;;;;;4996452;28;20454;-69
2021/09/30 14:58:57;;;;;;;2.70;0.90;;;19.60;61.50;;;;;;4995461;28;20456;-69
2021/09/30 15:01:23;;;;;;;0.80;0.70;;;19.70;59.30;;;;;;4995992;28;20512;-69
2021/09/30 15:03:50;;;;;;;2.20;0.90;;;19.70;58.50;;;;;;4995995;28;20482;-68
2021/09/30 15:06:17;;;;;;;5.27;1.10;;;19.60;59.40;;;;;;4996311;28;20453;-69
2021/09/30 15:08:44;;;;;;;2.30;0.73;;;19.50;58.40;;;;;;4995801;28;20453;-68
2021/09/30 15:11:12;;;;;;;1.73;1.00;;;19.40;59.40;;;;;;4995849;28;20473;-68
2021/09/30 15:13:39;;;;;;;2.30;1.10;;;19.20;59.50;;;;;;4995698;28;20508;-69
2021/09/30 15:16:09;;;;;;;1.60;0.90;;;19.30;59.90;;;;;;4996164;28;20454;-68
2021/09/30 15:18:53;;;;;;;1.50;1.00;;;19.00;59.40;;;;;;4995850;28;20450;-68
2021/09/30 15:21:23;;;;;;;2.23;1.83;;;19.00;63.30;;;;;;4995931;28;20473;-69
2021/09/30 15:23:51;;;;;;;3.70;1.20;;;19.10;60.10;;;;;;4996330;28;20469;-68
2021/09/30 15:26:19;;;;;;;2.43;1.40;;;19.00;59.50;;;;;;4995867;28;20462;-69
2021/09/30 15:28:46;;;;;;;1.60;0.83;;;18.70;59.60;;;;;;4996112;28;20967;-69
2021/09/30 15:31:13;;;;;;;3.40;0.97;;;18.60;59.80;;;;;;4996092;28;20811;-69
2021/09/30 15:33:40;;;;;;;3.80;1.10;;;18.60;63.40;;;;;;4995952;28;20450;-69
2021/09/30 15:36:08;;;;;;;2.60;0.70;;;18.50;61.10;;;;;;4995630;28;20453;-69
2021/09/30 15:38:36;;;;;;;1.47;0.70;;;18.40;61.50;;;;;;4995702;28;20453;-69
2021/09/30 15:41:04;;;;;;;1.90;0.90;;;18.40;63.50;;;;;;4995675;28;20501;-69
2021/09/30 15:43:32;;;;;;;2.53;1.00;;;18.20;59.20;;;;;;4995617;28;20481;-69
2021/09/30 15:46:00;;;;;;;1.10;0.80;;;17.90;64.40;;;;;;4995460;28;20457;-69
2021/09/30 15:48:27;;;;;;;1.23;1.00;;;17.80;63.00;;;;;;4995597;28;20477;-69
2021/09/30 15:50:54;;;;;;;2.00;1.03;;;17.70;63.00;;;;;;4995173;28;20481;-69
2021/09/30 15:53:20;;;;;;;1.80;1.10;;;17.60;62.70;;;;;;4995437;28;20458;-66
2021/09/30 15:55:47;;;;;;;1.20;1.10;;;17.40;65.80;;;;;;4995175;28;20453;-66
2021/09/30 15:58:14;;;;;;;3.00;1.00;;;17.20;67.50;;;;;;4995620;28;20438;-67
2021/09/30 16:00:43;;;;;;;1.60;0.90;;;17.20;69.50;;;;;;4994781;28;20517;-67
2021/09/30 16:03:09;;;;;;;2.50;1.10;;;17.20;70.80;;;;;;4999053;28;20801;-66
2021/09/30 16:05:36;;;;;;;2.80;0.93;;;17.20;70.80;;;;;;4995155;28;20501;-66
2021/09/30 16:08:03;;;;;;;1.80;0.73;;;17.10;70.80;;;;;;4995387;28;20454;-66
2021/09/30 16:10:30;;;;;;;1.17;1.03;;;16.90;67.00;;;;;;4994887;28;20814;-66
2021/09/30 16:12:57;;;;;;;4.00;1.07;;;16.80;67.30;;;;;;4994868;28;20453;-66
2021/09/30 16:15:23;;;;;;;4.87;1.33;;;16.70;69.30;;;;;;4994730;28;20465;-66
2021/09/30 16:17:51;;;;;;;1.87;0.90;;;16.60;69.20;;;;;;4994885;28;20807;-65
2021/09/30 16:20:19;;;;;;;2.40;1.03;;;16.60;68.70;;;;;;4994689;28;20442;-66
2021/09/30 16:22:46;;;;;;;1.47;1.20;;;16.60;69.80;;;;;;4994427;28;21013;-65
2021/09/30 16:25:13;;;;;;;3.80;1.17;;;16.60;71.80;;;;;;4995096;28;20449;-66
2021/09/30 16:27:40;;;;;;;1.50;1.23;;;16.60;80.00;;;;;;4995266;28;20462;-64
2021/09/30 16:30:11;;;;;;;9.70;2.37;;;16.60;80.20;;;;;;4995803;28;20457;-64
2021/09/30 16:32:38;;;;;;;2.33;2.10;;;16.60;79.50;;;;;;4994860;28;20839;-64
2021/09/30 16:35:07;;;;;;;2.20;1.53;;;16.60;82.70;;;;;;4994966;28;20504;-63
2021/09/30 16:37:33;;;;;;;2.97;1.93;;;16.60;81.20;;;;;;4994651;28;20461;-64
2021/09/30 16:40:00;;;;;;;2.30;1.40;;;16.60;82.40;;;;;;4994898;28;20504;-65
2021/09/30 16:42:27;;;;;;;4.20;1.23;;;16.50;80.30;;;;;;4994749;28;20485;-66
2021/09/30 16:44:54;;;;;;;1.30;1.20;;;16.50;78.70;;;;;;4994336;28;20999;-65
2021/09/30 16:47:20;;;;;;;2.73;1.30;;;16.50;77.80;;;;;;4994625;28;20465;-65
2021/09/30 16:49:47;;;;;;;1.30;1.20;;;16.50;77.40;;;;;;4994765;28;20445;-65
2021/09/30 16:52:15;;;;;;;4.00;1.20;;;16.40;78.40;;;;;;4994188;28;20474;-65
2021/09/30 16:54:42;;;;;;;2.30;1.10;;;16.30;79.60;;;;;;4994558;28;20449;-65
2021/09/30 16:57:08;;;;;;;1.53;0.97;;;16.30;80.00;;;;;;4994769;28;20462;-65
2021/09/30 16:59:35;;;;;;;3.13;0.90;;;16.20;80.70;;;;;;4994563;28;20458;-65
2021/09/30 17:02:02;;;;;;;2.20;1.43;;;16.10;81.50;;;;;;4993800;28;20503;-65
2021/09/30 17:04:29;;;;;;;2.00;1.40;;;16.00;82.70;;;;;;4994656;28;20527;-65